Time;durP1;ratioP1;P1;durP2;ratioP2;P2;SDS_P1;SDS_P2;PMS_P1;PMS_P2;Temp;Humidity;BMP_temperature;BMP_pressure;BME280_temperature;BME280_humidity;BME280_pressure;Samples;Min_cycle;Max_cycle;Signal;HPM_P1;HPM_P2
2024/02/21 00:01:29;;;;;;;19.60;3.50;;;;;;;5.90;100.00;100950.46;108417;1262;22813;-84
2024/02/21 00:04:20;;;;;;;25.40;4.70;;;;;;;5.91;100.00;100949.55;108258;1273;22745;-83
2024/02/21 00:07:12;;;;;;;22.60;3.10;;;;;;;5.92;100.00;100944.85;108269;1273;22520;-84
2024/02/21 00:10:03;;;;;;;19.30;3.70;;;;;;;5.95;100.00;100947.80;108376;1266;25305;-84
2024/02/21 00:12:54;;;;;;;25.40;3.30;;;;;;;5.98;100.00;100948.30;108584;1272;22565;-84
2024/02/21 00:15:45;;;;;;;19.20;4.10;;;;;;;5.99;99.98;100944.70;108458;1272;24276;-84
2024/02/21 00:18:37;;;;;;;17.20;3.30;;;;;;;6.00;100.00;100947.60;108542;1263;22527;-83
2024/02/21 00:21:29;;;;;;;23.60;5.00;;;;;;;6.01;99.97;100946.70;108587;1272;23080;-83
2024/02/21 00:24:20;;;;;;;20.90;2.60;;;;;;;6.01;99.95;100945.36;108582;1269;25347;-84
2024/02/21 00:27:12;;;;;;;22.00;2.90;;;;;;;6.01;99.96;100946.23;108453;1272;22561;-84
2024/02/21 00:30:04;;;;;;;19.50;3.70;;;;;;;6.02;100.00;100941.77;108550;1272;23301;-84
2024/02/21 00:32:55;;;;;;;25.00;2.80;;;;;;;6.03;99.98;100939.61;108413;1272;22557;-84
2024/02/21 00:35:46;;;;;;;15.50;2.80;;;;;;;6.02;99.92;100936.62;108485;1272;22569;-84
2024/02/21 00:38:38;;;;;;;16.20;2.40;;;;;;;6.04;99.97;100933.64;108477;1272;22818;-83
2024/02/21 00:41:29;;;;;;;19.10;2.30;;;;;;;6.04;99.97;100933.82;108584;1272;22567;-83
2024/02/21 00:44:21;;;;;;;28.70;3.20;;;;;;;6.03;99.96;100927.34;108445;1272;24653;-84
2024/02/21 00:47:12;;;;;;;20.80;2.40;;;;;;;6.02;99.98;100927.61;108479;1272;25297;-85
2024/02/21 00:50:04;;;;;;;19.60;2.10;;;;;;;6.01;99.95;100924.95;108412;1272;25475;-83
2024/02/21 00:52:55;;;;;;;22.00;3.70;;;;;;;6.01;99.92;100920.97;108231;1262;22575;-84
2024/02/21 00:55:50;;;;;;;19.20;2.30;;;;;;;6.01;99.98;100918.52;108479;1272;22640;-84
2024/02/21 00:58:41;;;;;;;19.10;2.40;;;;;;;6.00;100.00;100917.66;108445;1269;22644;-84
2024/02/21 01:01:33;;;;;;;18.70;2.80;;;;;;;6.00;99.99;100912.43;108412;1273;24524;-84
2024/02/21 01:04:25;;;;;;;21.50;3.40;;;;;;;6.02;100.00;100905.75;108220;1273;24471;-83
2024/02/21 01:07:17;;;;;;;26.20;4.00;;;;;;;6.03;99.99;100904.45;108158;1273;22615;-84
2024/02/21 01:10:11;;;;;;;20.70;4.30;;;;;;;6.04;100.00;100904.27;108204;1273;22537;-85
2024/02/21 01:13:03;;;;;;;24.40;4.20;;;;;;;6.06;100.00;100900.97;108242;1273;25392;-83
2024/02/21 01:15:55;;;;;;;15.60;3.20;;;;;;;6.08;100.00;100905.20;108316;1273;22623;-84
2024/02/21 01:18:47;;;;;;;19.90;3.10;;;;;;;6.07;99.99;100902.06;108218;1273;23813;-84
2024/02/21 01:21:39;;;;;;;21.50;2.90;;;;;;;6.06;99.96;100897.27;108240;1266;24238;-84
2024/02/21 01:24:30;;;;;;;28.90;3.00;;;;;;;6.05;99.96;100893.00;108309;1273;22555;-83
2024/02/21 01:27:21;;;;;;;15.70;2.80;;;;;;;6.06;100.00;100890.20;108385;1273;25339;-83
2024/02/21 01:30:14;;;;;;;13.70;2.50;;;;;;;6.05;100.00;100890.32;108250;1273;23006;-83
2024/02/21 01:33:05;;;;;;;22.10;3.00;;;;;;;6.05;99.97;100884.92;108312;1273;22556;-84
2024/02/21 01:35:57;;;;;;;20.80;2.70;;;;;;;6.06;100.00;100883.41;108292;1273;22527;-84
2024/02/21 01:38:48;;;;;;;14.30;2.40;;;;;;;6.06;100.00;100884.43;108233;1273;25332;-83
2024/02/21 01:41:39;;;;;;;23.40;3.80;;;;;;;6.05;100.00;100880.63;108160;1273;23932;-83
2024/02/21 01:44:31;;;;;;;22.00;3.30;;;;;;;6.02;100.00;100878.73;108364;1273;22566;-83
2024/02/21 01:47:22;;;;;;;19.00;3.70;;;;;;;6.01;100.00;100878.52;108148;1273;22553;-83
2024/02/21 01:50:15;;;;;;;19.90;3.40;;;;;;;5.99;100.00;100876.90;108429;1273;24421;-84
2024/02/21 01:53:08;;;;;;;18.90;3.60;;;;;;;5.98;100.00;100874.63;108305;1273;25448;-84
2024/02/21 01:56:00;;;;;;;23.90;4.10;;;;;;;5.97;100.00;100870.71;108229;1273;24270;-83
2024/02/21 01:58:52;;;;;;;25.10;3.00;;;;;;;5.94;100.00;100865.48;108304;1273;23262;-83
2024/02/21 02:01:45;;;;;;;17.10;2.40;;;;;;;5.93;100.00;100863.67;108327;1273;22578;-83
2024/02/21 02:04:39;;;;;;;20.40;2.70;;;;;;;5.93;100.00;100857.98;108291;1273;24295;-84
2024/02/21 02:07:31;;;;;;;26.50;3.30;;;;;;;5.91;100.00;100853.36;108066;1271;22649;-83
2024/02/21 02:10:22;;;;;;;22.00;2.80;;;;;;;5.92;100.00;100850.32;108310;1273;24274;-83
2024/02/21 02:13:13;;;;;;;23.70;2.70;;;;;;;5.92;100.00;100845.95;108299;1259;22558;-83
2024/02/21 02:16:05;;;;;;;19.70;2.50;;;;;;;5.92;100.00;100845.64;108260;1273;22524;-82
2024/02/21 02:18:58;;;;;;;19.50;4.30;;;;;;;5.93;100.00;100834.16;108371;1272;24984;-84
2024/02/21 02:22:01;;;;;;;20.80;2.40;;;;;;;5.94;100.00;100828.26;108426;1272;25366;-82
2024/02/21 02:24:53;;;;;;;19.20;4.20;;;;;;;5.96;100.00;100825.76;108477;1272;25419;-82
2024/02/21 02:27:47;;;;;;;22.90;2.50;;;;;;;5.96;100.00;100818.77;108513;1272;25183;-83
2024/02/21 02:30:40;;;;;;;21.80;3.00;;;;;;;5.98;100.00;100820.48;108484;1272;25565;-83
2024/02/21 02:33:31;;;;;;;21.10;2.70;;;;;;;6.00;100.00;100817.42;108472;1272;24368;-83
2024/02/21 02:36:22;;;;;;;26.40;4.60;;;;;;;6.00;100.00;100817.19;108415;1272;22527;-83
2024/02/21 02:39:13;;;;;;;19.10;3.10;;;;;;;5.98;100.00;100815.09;108268;1272;22660;-83
2024/02/21 02:42:05;;;;;;;23.90;3.40;;;;;;;5.97;100.00;100815.52;108350;1272;22653;-82
2024/02/21 02:44:57;;;;;;;19.40;3.00;;;;;;;5.95;100.00;100814.70;108456;1272;22559;-82
2024/02/21 02:47:49;;;;;;;14.20;2.80;;;;;;;5.93;100.00;100809.77;108374;1266;22599;-83
2024/02/21 02:50:41;;;;;;;21.90;3.00;;;;;;;5.92;100.00;100809.06;108438;1272;22558;-84
2024/02/21 02:53:32;;;;;;;18.10;3.90;;;;;;;5.90;100.00;100807.61;108384;1262;22547;-82
2024/02/21 02:56:23;;;;;;;26.20;4.00;;;;;;;5.87;100.00;100805.16;108445;1266;25329;-83
2024/02/21 02:59:15;;;;;;;15.60;3.70;;;;;;;5.84;100.00;100804.91;108392;1265;23423;-83
2024/02/21 03:02:07;;;;;;;19.70;3.80;;;;;;;5.81;100.00;100804.56;108181;1272;25441;-84
2024/02/21 03:04:58;;;;;;;25.90;4.50;;;;;;;5.81;100.00;100803.08;108297;1273;22555;-85
2024/02/21 03:07:50;;;;;;;21.50;2.80;;;;;;;5.80;100.00;100800.23;108909;1272;22548;-83
2024/02/21 03:10:42;;;;;;;16.30;2.50;;;;;;;5.80;100.00;100798.64;108338;1272;22590;-83
2024/02/21 03:13:33;;;;;;;22.20;3.80;;;;;;;5.79;100.00;100797.10;108437;1269;22585;-84
2024/02/21 03:16:26;;;;;;;23.10;3.30;;;;;;;5.78;100.00;100797.84;108285;1273;22579;-83
2024/02/21 03:19:17;;;;;;;16.50;2.80;;;;;;;5.76;100.00;100798.05;108272;1273;22984;-83
2024/02/21 03:22:09;;;;;;;19.60;3.20;;;;;;;5.74;100.00;100792.13;108363;1273;24274;-83
2024/02/21 03:25:00;;;;;;;32.80;4.00;;;;;;;5.74;100.00;100794.35;108290;1273;23281;-84
2024/02/21 03:27:52;;;;;;;27.90;5.00;;;;;;;5.73;100.00;100788.60;108278;1273;23010;-84
2024/02/21 03:30:43;;;;;;;27.10;3.40;;;;;;;5.71;100.00;100789.68;108342;1273;25134;-83
2024/02/21 03:33:34;;;;;;;18.50;3.30;;;;;;;5.70;100.00;100783.99;108163;1270;22578;-84
2024/02/21 03:36:26;;;;;;;21.50;3.90;;;;;;;5.69;100.00;100780.23;108378;1262;24257;-83
2024/02/21 03:39:17;;;;;;;17.20;3.00;;;;;;;5.68;100.00;100782.94;108375;1265;22555;-83
2024/02/21 03:42:09;;;;;;;25.50;4.70;;;;;;;5.69;100.00;100783.30;108364;1273;23288;-83
2024/02/21 03:45:00;;;;;;;18.00;3.60;;;;;;;5.70;100.00;100778.48;108384;1273;22672;-83
2024/02/21 03:47:51;;;;;;;18.50;3.60;;;;;;;5.70;100.00;100781.00;108452;1273;22607;-83
2024/02/21 03:50:44;;;;;;;16.90;3.40;;;;;;;5.69;100.00;100781.10;108350;1272;22674;-83
2024/02/21 03:53:35;;;;;;;18.40;3.60;;;;;;;5.69;100.00;100776.75;108490;1272;25392;-83
2024/02/21 03:56:26;;;;;;;21.00;3.40;;;;;;;5.70;100.00;100772.61;108473;1272;22618;-84
2024/02/21 03:59:17;;;;;;;20.10;3.90;;;;;;;5.70;100.00;100772.45;108348;1272;23812;-84
2024/02/21 04:02:09;;;;;;;19.00;3.90;;;;;;;5.69;100.00;100771.98;108479;1272;25488;-83
2024/02/21 04:05:00;;;;;;;22.30;4.00;;;;;;;5.69;100.00;100769.92;108242;1272;22562;-83
2024/02/21 04:07:51;;;;;;;18.10;3.10;;;;;;;5.71;100.00;100774.16;108286;1269;24377;-83
2024/02/21 04:10:42;;;;;;;15.00;3.30;;;;;;;5.72;100.00;100771.77;108186;1273;23462;-83
2024/02/21 04:13:33;;;;;;;18.90;3.40;;;;;;;5.71;100.00;100768.38;108371;1273;24384;-83
2024/02/21 04:16:24;;;;;;;18.90;4.10;;;;;;;5.72;100.00;100764.41;108220;1273;22622;-83
2024/02/21 04:19:15;;;;;;;16.90;3.40;;;;;;;5.72;100.00;100762.34;108453;1273;22562;-84
2024/02/21 04:22:06;;;;;;;12.30;2.80;;;;;;;5.73;100.00;100756.00;108352;1273;23266;-84
2024/02/21 04:24:58;;;;;;;18.10;3.40;;;;;;;5.73;100.00;100754.98;108421;1273;25282;-83
2024/02/21 04:27:49;;;;;;;16.30;3.60;;;;;;;5.71;100.00;100748.98;108278;1273;22611;-84
2024/02/21 04:30:40;;;;;;;23.40;3.80;;;;;;;5.72;100.00;100749.21;108378;1273;22546;-83
2024/02/21 04:33:31;;;;;;;19.00;3.80;;;;;;;5.72;100.00;100744.05;108116;1273;22641;-83
2024/02/21 04:36:23;;;;;;;20.00;4.30;;;;;;;5.72;100.00;100743.21;107957;1273;22580;-83
2024/02/21 04:39:15;;;;;;;19.10;4.30;;;;;;;5.72;100.00;100738.93;107937;1273;25403;-83
2024/02/21 04:42:07;;;;;;;18.50;4.90;;;;;;;5.71;100.00;100735.63;108016;1272;22611;-83
2024/02/21 04:44:58;;;;;;;21.90;4.80;;;;;;;5.69;100.00;100738.45;107964;1250;22537;-83
2024/02/21 04:47:49;;;;;;;17.30;4.30;;;;;;;5.68;100.00;100736.95;108041;1272;22740;-84
2024/02/21 04:50:41;;;;;;;20.40;4.40;;;;;;;5.68;100.00;100737.27;108187;1272;24231;-84
2024/02/21 04:53:32;;;;;;;24.00;4.30;;;;;;;5.68;100.00;100735.70;108056;1272;22640;-83
2024/02/21 04:56:24;;;;;;;16.90;3.70;;;;;;;5.67;100.00;100734.14;108111;1272;24189;-84
2024/02/21 04:59:16;;;;;;;20.80;3.90;;;;;;;5.66;100.00;100729.72;108212;1272;22606;-82
2024/02/21 05:02:08;;;;;;;20.60;5.90;;;;;;;5.66;100.00;100728.15;108110;1272;25298;-84
2024/02/21 05:04:59;;;;;;;20.60;5.10;;;;;;;5.64;100.00;100722.98;108056;1272;22591;-83
2024/02/21 05:07:51;;;;;;;20.10;5.30;;;;;;;5.63;100.00;100724.18;108074;1272;22536;-83
2024/02/21 05:10:42;;;;;;;16.70;5.00;;;;;;;5.63;100.00;100718.81;107965;1273;22613;-83
2024/02/21 05:13:33;;;;;;;21.00;4.70;;;;;;;5.61;100.00;100719.48;108030;1273;24242;-84
2024/02/21 05:16:22;;;;;;;;;;;;;;;5.62;100.00;100715.84;108013;1273;24334;-82
2024/02/21 05:19:13;;;;;;;19.30;4.70;;;;;;;5.60;100.00;100717.77;108073;1272;25603;-82
2024/02/21 05:22:05;;;;;;;19.00;4.00;;;;;;;5.60;100.00;100712.80;108281;1265;23590;-82
2024/02/21 05:24:56;;;;;;;20.50;3.30;;;;;;;5.58;100.00;100710.85;108217;1272;22625;-82
2024/02/21 05:27:48;;;;;;;16.80;3.50;;;;;;;5.58;100.00;100709.52;108180;1272;24337;-82
2024/02/21 05:30:40;;;;;;;22.70;3.90;;;;;;;5.60;100.00;100713.13;108197;1272;25313;-82
2024/02/21 05:33:31;;;;;;;18.80;3.50;;;;;;;5.60;100.00;100711.69;108257;1272;22550;-82
2024/02/21 05:36:22;;;;;;;17.20;4.00;;;;;;;5.61;100.00;100711.91;108628;1268;23416;-82
2024/02/21 05:39:14;;;;;;;20.50;4.00;;;;;;;5.60;100.00;100709.39;108588;1272;22597;-82
2024/02/21 05:42:05;;;;;;;20.20;3.90;;;;;;;5.60;100.00;100707.58;108609;1266;22528;-82
2024/02/21 05:44:56;;;;;;;18.90;3.90;;;;;;;5.61;100.00;100707.40;108570;1268;22679;-81
2024/02/21 05:47:47;;;;;;;21.50;4.60;;;;;;;5.62;100.00;100698.42;108818;1269;22720;-81
2024/02/21 05:50:39;;;;;;;20.20;4.90;;;;;;;5.63;100.00;100696.23;109190;1266;22913;-80
2024/02/21 05:53:30;;;;;;;17.50;5.00;;;;;;;5.65;100.00;100698.48;108636;1272;22570;-81
2024/02/21 05:56:21;;;;;;;20.60;4.50;;;;;;;5.67;100.00;100692.11;108630;1265;22559;-80
2024/02/21 05:59:12;;;;;;;17.20;4.80;;;;;;;5.68;100.00;100692.56;108669;1272;22594;-81
2024/02/21 06:02:04;;;;;;;16.10;3.70;;;;;;;5.70;100.00;100692.27;108572;1272;22898;-81
2024/02/21 06:04:55;;;;;;;15.60;4.30;;;;;;;5.70;100.00;100691.87;108729;1273;22619;-82
2024/02/21 06:07:47;;;;;;;13.00;3.80;;;;;;;5.71;100.00;100693.27;108822;1269;22554;-83
2024/02/21 06:10:37;;;;;;;19.60;4.30;;;;;;;5.73;100.00;100695.30;108502;1273;23023;-81
2024/02/21 06:13:29;;;;;;;21.90;4.30;;;;;;;5.74;100.00;100696.13;108730;1265;22596;-81
2024/02/21 06:16:21;;;;;;;14.60;3.90;;;;;;;5.77;100.00;100695.20;108840;1266;22540;-82
2024/02/21 06:19:12;;;;;;;19.90;4.80;;;;;;;5.77;100.00;100692.11;108660;1269;24235;-81
2024/02/21 06:22:07;;;;;;;19.40;3.90;;;;;;;5.79;100.00;100694.67;108631;1266;22747;-81
2024/02/21 06:24:58;;;;;;;19.10;5.40;;;;;;;5.80;100.00;100695.42;108675;1256;22530;-81
2024/02/21 06:27:49;;;;;;;20.20;5.00;;;;;;;5.83;100.00;100696.70;108641;1269;23286;-80
2024/02/21 06:30:40;;;;;;;18.50;4.20;;;;;;;5.85;100.00;100698.02;108788;1269;23333;-81
2024/02/21 06:33:32;;;;;;;17.50;4.30;;;;;;;5.87;100.00;100691.00;108780;1272;22652;-80
2024/02/21 06:36:23;;;;;;;18.40;4.30;;;;;;;5.89;100.00;100687.31;108775;1269;22545;-82
2024/02/21 06:39:14;;;;;;;25.50;4.60;;;;;;;5.90;100.00;100686.02;108828;1265;23015;-82
2024/02/21 06:42:05;;;;;;;19.00;4.70;;;;;;;5.91;100.00;100688.76;108583;1270;22564;-81
2024/02/21 06:44:57;;;;;;;20.10;5.40;;;;;;;5.92;100.00;100689.59;108613;1270;22650;-81
2024/02/21 06:47:48;;;;;;;20.40;4.20;;;;;;;5.93;100.00;100688.70;108693;1272;22705;-81
2024/02/21 06:50:39;;;;;;;29.80;7.40;;;;;;;5.95;100.00;100691.40;108897;1261;22972;-82
2024/02/21 06:53:30;;;;;;;23.40;6.60;;;;;;;5.96;100.00;100690.29;108621;1265;22800;-81
2024/02/21 06:56:21;;;;;;;21.20;5.60;;;;;;;5.99;100.00;100690.44;108706;1266;26652;-82
2024/02/21 06:59:15;;;;;;;18.80;5.40;;;;;;;6.01;100.00;100693.39;108574;1272;22632;-81
2024/02/21 07:02:06;;;;;;;20.50;4.80;;;;;;;6.03;100.00;100692.08;108573;1272;22555;-83
2024/02/21 07:04:57;;;;;;;24.80;5.10;;;;;;;6.04;100.00;100684.73;108580;1273;22621;-81
2024/02/21 07:07:48;;;;;;;18.80;3.90;;;;;;;6.07;100.00;100684.35;108656;1272;24053;-81
2024/02/21 07:10:39;;;;;;;19.20;4.70;;;;;;;6.09;100.00;100680.52;108466;1273;22657;-81
2024/02/21 07:13:29;;;;;;;22.40;3.80;;;;;;;6.11;100.00;100681.80;108551;1266;23262;-81
2024/02/21 07:16:20;;;;;;;21.50;3.70;;;;;;;6.13;100.00;100684.42;108751;1272;23303;-81
2024/02/21 07:19:12;;;;;;;24.00;4.00;;;;;;;6.16;100.00;100681.40;108631;1269;22589;-81
2024/02/21 07:22:03;;;;;;;24.20;3.80;;;;;;;6.19;100.00;100680.52;108700;1272;25331;-83
2024/02/21 07:24:55;;;;;;;19.40;4.90;;;;;;;6.23;100.00;100681.30;108645;1266;25494;-82
2024/02/21 07:27:47;;;;;;;21.20;4.10;;;;;;;6.27;100.00;100677.23;108682;1269;25300;-81
2024/02/21 07:30:38;;;;;;;26.20;5.00;;;;;;;6.31;100.00;100675.07;108730;1257;22535;-82
2024/02/21 07:33:30;;;;;;;22.90;5.60;;;;;;;6.33;100.00;100675.93;108667;1257;22547;-81
2024/02/21 07:36:31;;;;;;;23.20;6.10;;;;;;;6.36;100.00;100670.21;108690;1261;22562;-82
2024/02/21 07:39:22;;;;;;;18.50;4.30;;;;;;;6.40;100.00;100671.77;108665;1266;23241;-82
2024/02/21 07:42:14;;;;;;;20.90;3.80;;;;;;;6.42;100.00;100671.16;108570;1272;24269;-81
2024/02/21 07:45:05;;;;;;;23.20;4.40;;;;;;;6.45;100.00;100669.02;108614;1272;22586;-81
2024/02/21 07:47:56;;;;;;;26.60;5.30;;;;;;;6.48;100.00;100667.83;108682;1269;25290;-81
2024/02/21 07:50:47;;;;;;;17.50;4.60;;;;;;;6.50;100.00;100668.63;108583;1272;22524;-82
2024/02/21 07:53:44;;;;;;;16.80;5.00;;;;;;;6.52;100.00;100665.64;108726;1272;22605;-83
2024/02/21 07:56:35;;;;;;;21.50;4.40;;;;;;;6.55;100.00;100668.95;108642;1266;22565;-83
2024/02/21 07:59:26;;;;;;;19.90;4.40;;;;;;;6.59;100.00;100665.29;108704;1272;23286;-85
2024/02/21 08:02:19;;;;;;;21.10;5.20;;;;;;;6.63;100.00;100664.69;108697;1265;22772;-84
2024/02/21 08:05:12;;;;;;;22.20;4.50;;;;;;;6.66;100.00;100658.86;108640;1272;23189;-84
2024/02/21 08:08:03;;;;;;;19.80;4.40;;;;;;;6.71;100.00;100652.55;108558;1272;22523;-84
2024/02/21 08:10:54;;;;;;;22.80;5.60;;;;;;;6.76;100.00;100648.75;108505;1273;22690;-84
2024/02/21 08:13:46;;;;;;;18.30;5.10;;;;;;;6.80;100.00;100646.65;108344;1273;22610;-84
2024/02/21 08:16:37;;;;;;;26.60;6.30;;;;;;;6.83;100.00;100647.50;108422;1272;22552;-83
2024/02/21 08:19:28;;;;;;;18.20;5.30;;;;;;;6.86;100.00;100647.33;108685;1272;22591;-83
2024/02/21 08:22:20;;;;;;;24.70;6.60;;;;;;;6.90;100.00;100640.93;108631;1269;22715;-82
2024/02/21 08:25:10;;;;;;;24.30;7.10;;;;;;;6.93;100.00;100639.74;108703;1266;22660;-83
2024/02/21 08:28:02;;;;;;;24.10;6.40;;;;;;;6.95;100.00;100638.23;108678;1272;23317;-82
2024/02/21 08:30:53;;;;;;;27.20;7.20;;;;;;;6.98;100.00;100631.94;108642;1266;26627;-83
2024/02/21 08:33:44;;;;;;;27.20;7.50;;;;;;;7.01;100.00;100630.58;108630;1272;24397;-83
2024/02/21 08:36:36;;;;;;;25.10;7.10;;;;;;;7.04;100.00;100626.67;108722;1272;25268;-83
2024/02/21 08:39:28;;;;;;;28.00;7.80;;;;;;;7.06;100.00;100629.71;108702;1266;25677;-83
2024/02/21 08:42:20;;;;;;;23.90;7.50;;;;;;;7.07;100.00;100628.73;108669;1272;25431;-83
2024/02/21 08:45:12;;;;;;;22.20;7.10;;;;;;;7.10;100.00;100628.38;108550;1270;22565;-84
2024/02/21 08:48:05;;;;;;;25.70;7.00;;;;;;;7.15;100.00;100627.82;108619;1272;25204;-82
2024/02/21 08:50:56;;;;;;;24.90;7.20;;;;;;;7.20;100.00;100629.27;108458;1273;22560;-83
2024/02/21 08:53:49;;;;;;;23.60;6.70;;;;;;;7.25;100.00;100625.77;108650;1269;22512;-83
2024/02/21 08:56:40;;;;;;;26.60;6.60;;;;;;;7.29;100.00;100626.33;108602;1266;25416;-83
2024/02/21 08:59:31;;;;;;;26.30;6.20;;;;;;;7.31;100.00;100625.30;108642;1272;22627;-83
2024/02/21 09:02:23;;;;;;;25.70;6.00;;;;;;;7.35;100.00;100619.22;108683;1261;22523;-83
2024/02/21 09:05:14;;;;;;;25.20;6.00;;;;;;;7.38;100.00;100622.06;108625;1265;23316;-83
2024/02/21 09:08:07;;;;;;;23.90;6.00;;;;;;;7.44;100.00;100619.04;108602;1272;22620;-83
2024/02/21 09:10:58;;;;;;;20.70;6.30;;;;;;;7.49;100.00;100620.30;108597;1272;22544;-83
2024/02/21 09:13:49;;;;;;;25.70;6.70;;;;;;;7.53;100.00;100618.56;108436;1272;22566;-83
2024/02/21 09:16:41;;;;;;;24.70;6.20;;;;;;;7.57;100.00;100618.02;108373;1273;22549;-83
2024/02/21 09:19:31;;;;;;;23.10;6.00;;;;;;;7.62;100.00;100618.86;108642;1250;23353;-83
2024/02/21 09:22:22;;;;;;;22.80;5.40;;;;;;;7.66;100.00;100613.16;108594;1266;25286;-82
2024/02/21 09:25:14;;;;;;;20.40;6.00;;;;;;;7.70;100.00;100615.48;108634;1266;22545;-82
2024/02/21 09:28:06;;;;;;;22.20;6.50;;;;;;;7.74;100.00;100615.67;108642;1272;24385;-83
2024/02/21 09:30:57;;;;;;;22.20;5.70;;;;;;;7.78;100.00;100611.86;108575;1272;22541;-83
2024/02/21 09:33:49;;;;;;;24.10;6.10;;;;;;;7.79;100.00;100609.51;108639;1268;22632;-84
2024/02/21 09:36:40;;;;;;;20.80;5.30;;;;;;;7.80;100.00;100614.11;108658;1272;22551;-84
2024/02/21 09:39:32;;;;;;;24.20;6.90;;;;;;;7.80;100.00;100616.05;108580;1272;22523;-84
2024/02/21 09:42:30;;;;;;;18.80;4.80;;;;;;;7.81;100.00;100612.39;108528;1272;22598;-83
2024/02/21 09:45:24;;;;;;;22.00;6.00;;;;;;;7.82;100.00;100610.45;108658;1269;22547;-83
2024/02/21 09:48:26;;;;;;;24.50;5.60;;;;;;;7.84;100.00;100612.95;110926;1272;22257;-83
2024/02/21 09:51:18;;;;;;;21.80;6.80;;;;;;;7.86;100.00;100612.36;110911;1269;22861;-83
2024/02/21 09:54:10;;;;;;;25.60;6.00;;;;;;;7.91;100.00;100610.11;110898;1269;22630;-84
2024/02/21 09:57:02;;;;;;;27.50;6.30;;;;;;;7.93;100.00;100609.16;110909;1269;22179;-84
2024/02/21 09:59:53;;;;;;;25.60;6.90;;;;;;;7.97;100.00;100608.46;110919;1266;22253;-83
2024/02/21 10:02:44;;;;;;;25.70;7.50;;;;;;;8.01;100.00;100606.42;110913;1269;22165;-84
2024/02/21 10:05:35;;;;;;;22.50;6.10;;;;;;;8.04;100.00;100604.56;110909;1262;22599;-85
2024/02/21 10:08:26;;;;;;;21.50;6.60;;;;;;;8.05;100.00;100602.69;110922;1262;22996;-83
2024/02/21 10:11:26;;;;;;;26.60;7.60;;;;;;;8.07;100.00;100598.80;110915;1265;23083;-84
2024/02/21 10:14:18;;;;;;;23.40;7.00;;;;;;;8.09;100.00;100599.44;110857;1262;22053;-83
2024/02/21 10:17:10;;;;;;;20.40;6.70;;;;;;;8.09;100.00;100601.90;110909;1266;22151;-82
2024/02/21 10:20:11;;;;;;;26.10;6.50;;;;;;;8.09;100.00;100596.83;110842;1273;22250;-83
2024/02/21 10:23:08;;;;;;;26.30;5.80;;;;;;;8.08;100.00;100593.92;110832;1273;23080;-82
2024/02/21 10:26:08;;;;;;;22.00;6.20;;;;;;;8.08;100.00;100595.66;110843;1273;22459;-81
2024/02/21 10:28:59;;;;;;;24.30;7.00;;;;;;;8.09;100.00;100602.95;110754;1272;22184;-81
2024/02/21 10:31:50;;;;;;;28.10;7.40;;;;;;;8.09;100.00;100608.25;110239;1272;850005;-81
2024/02/21 10:34:42;;;;;;;23.80;6.60;;;;;;;8.10;100.00;100605.77;110716;1272;22312;-82
2024/02/21 10:37:33;;;;;;;26.20;7.70;;;;;;;8.11;100.00;100600.61;110944;1269;23014;-82
2024/02/21 10:40:24;;;;;;;22.10;5.80;;;;;;;8.11;100.00;100596.17;110921;1269;22252;-81
2024/02/21 10:43:18;;;;;;;22.60;7.30;;;;;;;8.09;100.00;100595.70;110879;1272;22139;-81
2024/02/21 10:46:10;;;;;;;28.50;6.40;;;;;;;8.10;100.00;100599.73;110843;1272;22124;-81
2024/02/21 10:49:08;;;;;;;25.60;6.80;;;;;;;8.10;100.00;100591.63;110899;1269;22163;-81
2024/02/21 10:52:16;;;;;;;18.80;5.60;;;;;;;8.08;100.00;100589.85;110911;1269;22975;-81
2024/02/21 10:55:11;;;;;;;22.10;5.90;;;;;;;8.09;100.00;100581.41;110906;1266;22185;-81
2024/02/21 10:58:03;;;;;;;19.60;5.60;;;;;;;8.10;100.00;100573.67;110747;1269;22221;-82
2024/02/21 11:00:54;;;;;;;19.20;5.60;;;;;;;8.10;100.00;100572.80;110868;1269;22137;-81
2024/02/21 11:03:47;;;;;;;20.80;6.50;;;;;;;8.12;100.00;100565.32;110916;1272;22185;-81
2024/02/21 11:06:39;;;;;;;31.80;7.10;;;;;;;8.16;100.00;100549.63;110907;1272;22094;-81
2024/02/21 11:09:34;;;;;;;24.20;5.90;;;;;;;8.20;100.00;100550.74;110905;1270;22217;-82
2024/02/21 11:12:27;;;;;;;18.60;5.80;;;;;;;8.22;100.00;100549.79;110900;1270;22598;-83
2024/02/21 11:15:18;;;;;;;25.20;6.60;;;;;;;8.24;100.00;100548.91;110914;1266;22193;-82
2024/02/21 11:18:09;;;;;;;24.80;6.70;;;;;;;8.26;100.00;100547.60;110913;1269;22264;-82
2024/02/21 11:20:59;;;;;;;23.00;5.50;;;;;;;8.27;100.00;100543.48;110894;1269;22162;-81
2024/02/21 11:23:58;;;;;;;22.40;5.90;;;;;;;8.27;100.00;100545.90;110891;1272;22230;-81
2024/02/21 11:26:51;;;;;;;21.40;5.70;;;;;;;8.29;100.00;100545.73;110789;1272;22222;-81
2024/02/21 11:29:47;;;;;;;20.00;5.70;;;;;;;8.31;99.98;100542.70;110879;1266;22686;-83
2024/02/21 11:32:38;;;;;;;21.70;6.30;;;;;;;8.34;100.00;100534.49;110913;1269;22162;-81
2024/02/21 11:35:34;;;;;;;18.20;5.80;;;;;;;8.36;100.00;100529.80;110889;1266;22236;-82
2024/02/21 11:38:25;;;;;;;21.60;6.10;;;;;;;8.38;99.96;100526.39;110892;1267;22482;-81
2024/02/21 11:41:16;;;;;;;17.80;5.10;;;;;;;8.40;100.00;100518.91;110896;1265;22405;-82
2024/02/21 11:44:05;;;;;;;;;;;;;;;8.44;99.96;100506.71;110896;1266;23097;-81
2024/02/21 11:46:56;;;;;;;22.10;5.90;;;;;;;8.46;100.00;100501.15;110865;1273;22476;-81
2024/02/21 11:49:49;;;;;;;22.60;7.80;;;;;;;8.50;100.00;100497.38;110814;1273;22157;-81
2024/02/21 11:52:40;;;;;;;26.50;8.50;;;;;;;8.53;99.92;100494.20;110806;1273;22140;-81
2024/02/21 11:55:31;;;;;;;32.20;11.50;;;;;;;8.57;99.94;100494.98;110803;1256;22330;-82
2024/02/21 11:58:22;;;;;;;26.50;10.20;;;;;;;8.60;99.80;100498.39;110857;1269;23062;-81
2024/02/21 12:01:13;;;;;;;26.20;10.90;;;;;;;8.62;99.56;100501.34;110888;1269;22219;-81
2024/02/21 12:04:05;;;;;;;32.80;12.10;;;;;;;8.65;99.94;100498.74;110919;1269;22710;-81
2024/02/21 12:06:56;;;;;;;31.20;10.50;;;;;;;8.67;99.60;100493.15;110777;1262;22916;-81
2024/02/21 12:09:47;;;;;;;31.20;10.40;;;;;;;8.67;99.49;100484.87;110870;1272;22248;-81
2024/02/21 12:12:38;;;;;;;23.90;8.40;;;;;;;8.68;99.09;100483.98;110881;1266;22119;-82
2024/02/21 12:15:29;;;;;;;24.40;7.80;;;;;;;8.68;99.02;100485.62;110881;1269;22224;-81
2024/02/21 12:18:20;;;;;;;21.80;7.10;;;;;;;8.70;98.92;100483.33;110867;1269;22230;-81
2024/02/21 12:21:12;;;;;;;20.40;6.30;;;;;;;8.71;98.90;100481.86;110890;1269;22185;-82
2024/02/21 12:24:12;;;;;;;17.80;5.90;;;;;;;8.75;99.02;100470.73;110874;1269;22224;-82
2024/02/21 12:27:04;;;;;;;19.30;6.40;;;;;;;8.80;99.27;100456.90;110896;1269;22151;-82
2024/02/21 12:29:54;;;;;;;17.60;5.10;;;;;;;8.87;99.32;100448.66;110874;1269;23004;-82
2024/02/21 12:32:45;;;;;;;17.20;5.30;;;;;;;8.92;99.06;100452.34;110872;1269;22127;-81
2024/02/21 12:35:36;;;;;;;16.00;4.70;;;;;;;8.98;99.20;100448.92;110886;1269;23150;-82
2024/02/21 12:38:27;;;;;;;17.60;4.80;;;;;;;9.04;99.10;100444.27;110868;1272;22418;-82
2024/02/21 12:41:18;;;;;;;18.80;4.20;;;;;;;9.08;98.66;100433.02;110780;1266;22271;-82
2024/02/21 12:44:10;;;;;;;20.70;5.30;;;;;;;9.12;98.50;100432.30;110176;1266;25402;-81
2024/02/21 12:47:01;;;;;;;17.20;4.10;;;;;;;9.15;98.24;100425.42;108041;1272;22647;-80
2024/02/21 12:49:52;;;;;;;19.00;4.20;;;;;;;9.18;98.01;100420.05;108190;1272;22555;-81
2024/02/21 12:52:44;;;;;;;16.40;4.30;;;;;;;9.20;98.20;100413.89;108062;1269;23132;-80
2024/02/21 12:55:35;;;;;;;13.30;4.80;;;;;;;9.20;97.90;100406.34;108128;1273;22653;-81
2024/02/21 12:58:26;;;;;;;15.10;3.90;;;;;;;9.20;97.79;100401.95;108072;1273;22687;-80
2024/02/21 13:01:18;;;;;;;19.10;4.40;;;;;;;9.20;97.63;100400.91;108285;1272;23909;-79
2024/02/21 13:04:09;;;;;;;15.90;3.70;;;;;;;9.21;97.83;100391.73;108099;1268;24276;-80